createdAt,value
2018-05-10T00:01:22.658Z,22.43
2018-05-10T00:03:50.265Z,29.43
2018-05-10T00:06:17.822Z,29.27
2018-05-10T00:08:45.432Z,17.87
2018-05-10T00:11:12.996Z,29.23
2018-05-10T00:13:40.559Z,12.43
2018-05-10T00:16:08.184Z,18.40
2018-05-10T00:18:35.809Z,18.63
2018-05-10T00:21:03.397Z,20.77
2018-05-10T00:23:30.941Z,14.80
2018-05-10T00:25:58.562Z,23.60
2018-05-10T00:28:26.152Z,22.80
2018-05-10T00:30:53.714Z,21.33
2018-05-10T00:33:21.285Z,31.50
2018-05-10T00:35:48.836Z,20.00
2018-05-10T00:38:16.445Z,25.40
2018-05-10T00:40:44.008Z,31.23
2018-05-10T00:43:11.629Z,25.47
2018-05-10T00:45:39.265Z,18.03
2018-05-10T00:48:06.824Z,23.10
2018-05-10T00:50:34.395Z,24.97
2018-05-10T00:53:01.968Z,22.10
2018-05-10T00:55:29.645Z,23.40
2018-05-10T00:57:57.192Z,26.13
2018-05-10T01:00:24.772Z,37.53
2018-05-10T01:02:52.503Z,22.30
2018-05-10T01:05:20.068Z,24.87
2018-05-10T01:07:47.701Z,25.77
2018-05-10T01:10:15.262Z,15.17
2018-05-10T01:12:42.876Z,25.00
2018-05-10T01:15:10.505Z,21.97
2018-05-10T01:17:38.116Z,23.53
2018-05-10T01:20:05.823Z,22.83
2018-05-10T01:22:33.346Z,21.23
2018-05-10T01:25:01.008Z,28.70
2018-05-10T01:27:28.585Z,25.77
2018-05-10T01:29:56.275Z,27.30
2018-05-10T01:32:23.913Z,27.70
2018-05-10T01:35:03.421Z,23.10
2018-05-10T01:37:30.992Z,28.23
2018-05-10T01:39:58.579Z,22.50
2018-05-10T01:42:26.148Z,31.30
2018-05-10T01:44:53.778Z,26.13
2018-05-10T01:47:21.329Z,32.17
2018-05-10T01:49:48.892Z,30.57
2018-05-10T01:52:16.515Z,25.97
2018-05-10T01:54:44.085Z,32.60
2018-05-10T01:57:11.729Z,27.23
2018-05-10T01:59:39.305Z,33.10
2018-05-10T02:02:06.868Z,27.53
2018-05-10T02:04:34.489Z,27.77
2018-05-10T02:07:02.075Z,27.73
2018-05-10T02:09:29.711Z,31.57
2018-05-10T02:11:57.301Z,31.17
2018-05-10T02:14:24.933Z,25.10
2018-05-10T02:16:52.578Z,22.30
2018-05-10T02:19:20.149Z,31.40
2018-05-10T02:21:47.725Z,24.60
2018-05-10T02:24:15.296Z,35.50
2018-05-10T02:26:42.912Z,23.63
2018-05-10T02:29:10.532Z,27.70
2018-05-10T02:31:38.100Z,27.50
2018-05-10T02:34:05.668Z,29.53
2018-05-10T02:36:33.219Z,30.20
2018-05-10T02:39:00.797Z,30.43
2018-05-10T02:41:28.417Z,30.73
2018-05-10T02:43:56.034Z,35.40
2018-05-10T02:46:23.593Z,25.10
2018-05-10T02:48:51.220Z,29.57
2018-05-10T02:51:18.792Z,29.83
2018-05-10T02:53:46.361Z,28.13
2018-05-10T02:56:13.931Z,17.33
2018-05-10T02:58:41.494Z,20.83
2018-05-10T03:01:09.242Z,23.40
2018-05-10T03:03:36.871Z,27.40
2018-05-10T03:06:04.505Z,22.80
2018-05-10T03:08:32.080Z,33.60
2018-05-10T03:10:59.662Z,29.43
2018-05-10T03:13:27.237Z,24.37
2018-05-10T03:15:54.804Z,25.80
2018-05-10T03:18:22.420Z,38.57
2018-05-10T03:20:49.994Z,24.10
2018-05-10T03:23:17.573Z,39.43
2018-05-10T03:25:45.194Z,30.90
2018-05-10T03:28:12.765Z,23.53
2018-05-10T03:30:40.341Z,29.27
2018-05-10T03:33:07.893Z,26.10
2018-05-10T03:35:35.575Z,30.17
2018-05-10T03:38:03.212Z,35.67
2018-05-10T03:40:30.813Z,32.37
2018-05-10T03:42:58.450Z,29.53
2018-05-10T03:45:26.029Z,24.67
2018-05-10T03:47:53.723Z,27.50
2018-05-10T03:50:21.285Z,27.53
2018-05-10T03:52:48.844Z,37.63
2018-05-10T03:55:16.423Z,26.07
2018-05-10T03:57:44.069Z,21.87
2018-05-10T04:00:11.753Z,25.50
2018-05-10T04:02:51.076Z,25.53
2018-05-10T04:05:30.541Z,21.67
2018-05-10T04:08:10.022Z,34.60
2018-05-10T04:10:49.366Z,20.43
2018-05-10T04:13:16.978Z,22.13
2018-05-10T04:15:44.541Z,22.93
2018-05-10T04:18:12.120Z,19.63
2018-05-10T04:20:39.697Z,19.37
2018-05-10T04:23:07.273Z,23.80
2018-05-10T04:25:34.833Z,18.40
2018-05-10T04:28:02.464Z,18.70
2018-05-10T04:30:30.043Z,19.30
2018-05-10T04:32:57.603Z,21.37
2018-05-10T04:35:25.240Z,23.20
2018-05-10T04:37:52.800Z,22.80
2018-05-10T04:40:20.440Z,23.63
2018-05-10T04:42:48.080Z,22.43
2018-05-10T04:45:15.757Z,20.27
2018-05-10T04:47:43.384Z,15.90
2018-05-10T04:50:10.954Z,16.77
2018-05-10T04:52:38.521Z,24.03
2018-05-10T04:55:06.141Z,22.07
2018-05-10T04:57:33.709Z,18.47
2018-05-10T05:00:01.292Z,18.27
2018-05-10T05:02:28.919Z,23.30
2018-05-10T05:04:56.480Z,20.57
2018-05-10T05:07:24.036Z,16.20
2018-05-10T05:09:51.665Z,23.77
2018-05-10T05:12:19.233Z,13.83
2018-05-10T05:14:46.869Z,20.33
2018-05-10T05:17:14.505Z,14.87
2018-05-10T05:19:42.189Z,12.63
2018-05-10T05:22:09.800Z,13.80
2018-05-10T05:24:37.360Z,12.60
2018-05-10T05:27:04.938Z,12.43
2018-05-10T05:29:32.560Z,14.20
2018-05-10T05:32:00.137Z,17.30
2018-05-10T05:34:27.711Z,16.53
2018-05-10T05:36:55.425Z,21.20
2018-05-10T05:39:22.988Z,17.87
2018-05-10T05:41:50.545Z,15.33
2018-05-10T05:44:18.188Z,21.23
2018-05-10T05:46:45.805Z,14.60
2018-05-10T05:49:13.433Z,19.00
2018-05-10T05:51:40.997Z,13.30
2018-05-10T05:54:08.683Z,19.20
2018-05-10T05:56:36.254Z,12.73
2018-05-10T05:59:03.895Z,26.13
2018-05-10T06:01:31.421Z,24.20
2018-05-10T06:03:58.979Z,14.13
2018-05-10T06:06:26.557Z,26.03
2018-05-10T06:08:54.131Z,28.10
2018-05-10T06:11:21.696Z,15.20
2018-05-10T06:13:49.330Z,19.60
2018-05-10T06:16:16.969Z,20.20
2018-05-10T06:18:44.613Z,21.67
2018-05-10T06:21:12.178Z,12.87
2018-05-10T06:23:39.861Z,12.27
2018-05-10T06:26:07.420Z,21.70
2018-05-10T06:28:34.976Z,20.87
2018-05-10T06:31:02.546Z,12.63
2018-05-10T06:33:30.165Z,22.63
2018-05-10T06:35:57.802Z,22.47
2018-05-10T06:38:25.429Z,13.40
2018-05-10T06:40:53.086Z,11.97
2018-05-10T06:43:20.647Z,13.50
2018-05-10T06:45:48.264Z,14.27
2018-05-10T06:48:15.833Z,13.33
2018-05-10T06:50:43.400Z,14.07
2018-05-10T06:53:11.001Z,32.13
2018-05-10T06:55:38.630Z,32.57
2018-05-10T06:58:06.301Z,9.13
2018-05-10T07:00:33.937Z,19.67
2018-05-10T07:03:01.569Z,18.77
2018-05-10T07:05:29.150Z,10.70
2018-05-10T07:07:56.769Z,15.63
2018-05-10T07:10:24.401Z,10.93
2018-05-10T07:12:51.957Z,21.97
2018-05-10T07:15:19.559Z,15.47
2018-05-10T07:17:47.132Z,10.57
2018-05-10T07:20:14.714Z,15.03
2018-05-10T07:22:42.285Z,25.43
2018-05-10T07:25:09.916Z,18.60
2018-05-10T07:27:37.501Z,7.80
2018-05-10T07:30:05.117Z,9.90
2018-05-10T07:32:32.728Z,12.43
2018-05-10T07:35:00.284Z,8.03
2018-05-10T07:37:27.860Z,12.83
2018-05-10T07:39:55.489Z,12.13
2018-05-10T07:42:23.044Z,16.67
2018-05-10T07:44:50.612Z,10.83
2018-05-10T07:47:18.231Z,10.93
2018-05-10T07:49:45.880Z,13.53
2018-05-10T07:52:13.502Z,11.10
2018-05-10T07:54:41.078Z,14.77
2018-05-10T07:57:08.713Z,15.40
2018-05-10T07:59:36.328Z,14.80
2018-05-10T08:02:03.937Z,7.40
2018-05-10T08:04:31.496Z,18.53
2018-05-10T08:06:59.050Z,7.70
2018-05-10T08:09:26.702Z,11.83
2018-05-10T08:11:54.317Z,4.80
2018-05-10T08:14:21.928Z,16.03
2018-05-10T08:16:49.489Z,18.30
2018-05-10T08:19:17.052Z,8.33
2018-05-10T08:21:44.616Z,19.20
2018-05-10T08:24:12.233Z,6.20
2018-05-10T08:26:39.773Z,6.67
2018-05-10T08:29:07.328Z,7.97
2018-05-10T08:31:34.945Z,6.73
2018-05-10T08:34:02.516Z,10.63
2018-05-10T08:36:30.257Z,6.10
2018-05-10T08:38:57.757Z,11.50
2018-05-10T08:41:25.387Z,8.57
2018-05-10T08:43:53.021Z,11.50
2018-05-10T08:46:20.581Z,7.83
2018-05-10T08:48:48.188Z,7.60
2018-05-10T08:51:15.813Z,10.57
2018-05-10T08:53:43.372Z,11.60
2018-05-10T08:56:11.029Z,9.17
2018-05-10T08:58:38.604Z,9.40
2018-05-10T09:01:06.173Z,18.00
2018-05-10T09:03:33.728Z,5.47
2018-05-10T09:06:01.345Z,10.83
2018-05-10T09:08:28.905Z,13.67
2018-05-10T09:10:56.464Z,15.57
2018-05-10T09:13:24.093Z,6.90
2018-05-10T09:15:51.719Z,12.60
2018-05-10T09:18:19.289Z,10.63
2018-05-10T09:20:46.861Z,19.50
2018-05-10T09:23:14.469Z,6.20
2018-05-10T09:25:42.128Z,12.90
2018-05-10T09:28:09.696Z,9.60
2018-05-10T09:30:37.279Z,14.10
2018-05-10T09:33:04.841Z,10.37
2018-05-10T09:35:32.450Z,8.20
2018-05-10T09:38:00.011Z,19.57
2018-05-10T09:40:28.595Z,8.77
2018-05-10T09:42:56.156Z,14.80
2018-05-10T09:45:23.709Z,12.23
2018-05-10T09:47:51.329Z,11.83
2018-05-10T09:50:18.900Z,17.00
2018-05-10T09:52:46.484Z,9.07
2018-05-10T09:55:14.056Z,16.67
2018-05-10T09:57:41.747Z,6.67
2018-05-10T10:00:09.425Z,11.43
2018-05-10T10:02:36.976Z,6.73
2018-05-10T10:05:04.549Z,9.67
2018-05-10T10:07:32.112Z,12.73
2018-05-10T10:09:59.676Z,9.57
2018-05-10T10:12:27.303Z,6.80
2018-05-10T10:14:54.917Z,8.00
2018-05-10T10:17:22.546Z,6.63
2018-05-10T10:19:50.109Z,8.63
2018-05-10T10:22:17.749Z,12.53
2018-05-10T10:24:45.305Z,4.70
2018-05-10T10:27:12.872Z,6.07
2018-05-10T10:29:40.438Z,5.47
2018-05-10T10:32:08.105Z,6.00
2018-05-10T10:34:35.742Z,11.07
2018-05-10T10:37:03.252Z,7.20
2018-05-10T10:39:30.901Z,7.80
2018-05-10T10:41:58.468Z,4.30
2018-05-10T10:44:26.074Z,7.00
2018-05-10T10:46:53.681Z,9.30
2018-05-10T10:49:21.297Z,17.33
2018-05-10T10:51:48.925Z,10.03
2018-05-10T10:54:16.486Z,7.30
2018-05-10T10:56:44.115Z,7.70
2018-05-10T10:59:11.667Z,9.00
2018-05-10T11:01:39.243Z,7.43
2018-05-10T11:04:06.889Z,10.10
2018-05-10T11:06:34.508Z,6.53
2018-05-10T11:09:02.061Z,4.43
2018-05-10T11:11:29.626Z,8.73
2018-05-10T11:13:57.196Z,8.27
2018-05-10T11:16:24.828Z,10.17
2018-05-10T11:18:52.393Z,7.47
2018-05-10T11:21:19.952Z,15.50
2018-05-10T11:23:47.621Z,8.13
2018-05-10T11:26:15.165Z,17.87
2018-05-10T11:28:42.717Z,9.47
2018-05-10T11:31:10.288Z,16.37
2018-05-10T11:33:37.841Z,2.10
2018-05-10T11:36:05.406Z,7.43
2018-05-10T11:38:32.973Z,8.60
2018-05-10T11:41:00.580Z,5.13
2018-05-10T11:43:28.162Z,3.53
2018-05-10T11:45:55.724Z,3.43
2018-05-10T11:48:23.288Z,6.07
2018-05-10T11:50:50.845Z,6.67
2018-05-10T11:53:18.419Z,5.50
2018-05-10T11:55:45.985Z,22.17
2018-05-10T11:58:13.593Z,6.00
2018-05-10T12:00:41.153Z,12.70
2018-05-10T12:03:08.774Z,6.90
2018-05-10T12:05:36.337Z,7.10
2018-05-10T12:08:03.957Z,13.43
2018-05-10T12:10:31.505Z,3.00
2018-05-10T12:12:59.117Z,8.13
2018-05-10T12:15:26.725Z,5.30
2018-05-10T12:17:54.349Z,3.90
2018-05-10T12:20:21.994Z,2.50
2018-05-10T12:22:49.634Z,7.17
2018-05-10T12:25:17.253Z,4.40
2018-05-10T12:27:44.881Z,1.93
2018-05-10T12:30:12.455Z,6.13
2018-05-10T12:32:40.144Z,10.90
2018-05-10T12:35:07.700Z,13.00
2018-05-10T12:37:35.256Z,2.73
2018-05-10T12:40:02.816Z,1.87
2018-05-10T12:42:30.455Z,5.70
2018-05-10T12:44:58.021Z,4.50
2018-05-10T12:47:25.572Z,9.87
2018-05-10T12:49:53.251Z,1.63
2018-05-10T12:52:20.808Z,1.20
2018-05-10T12:54:48.365Z,4.30
2018-05-10T12:57:15.932Z,4.50
2018-05-10T12:59:43.488Z,4.93
2018-05-10T13:02:11.170Z,2.80
2018-05-10T13:04:38.720Z,1.23
2018-05-10T13:07:06.277Z,1.37
2018-05-10T13:09:33.904Z,11.83
2018-05-10T13:12:01.456Z,2.07
2018-05-10T13:14:29.021Z,1.73
2018-05-10T13:16:56.580Z,2.90
2018-05-10T13:19:24.248Z,1.80
2018-05-10T13:21:51.912Z,1.37
2018-05-10T13:24:19.482Z,11.17
2018-05-10T13:26:47.061Z,9.97
2018-05-10T13:29:14.686Z,6.70
2018-05-10T13:31:42.324Z,7.33
2018-05-10T13:34:09.885Z,6.20
2018-05-10T13:36:37.443Z,14.63
2018-05-10T13:39:05.056Z,5.57
2018-05-10T13:41:32.604Z,2.50
2018-05-10T13:44:00.164Z,3.30
2018-05-10T13:46:27.778Z,7.60
2018-05-10T13:48:55.388Z,8.03
2018-05-10T13:51:23.071Z,3.50
2018-05-10T13:53:50.660Z,5.67
2018-05-10T13:56:18.261Z,11.50
2018-05-10T13:58:45.877Z,5.43
2018-05-10T14:01:13.441Z,6.10
2018-05-10T14:03:41.062Z,3.40
2018-05-10T14:06:08.673Z,9.60
2018-05-10T14:08:36.329Z,9.03
2018-05-10T14:11:03.949Z,6.03
2018-05-10T14:13:31.461Z,3.33
2018-05-10T14:15:59.012Z,3.80
2018-05-10T14:18:26.584Z,4.00
2018-05-10T14:20:54.131Z,8.43
2018-05-10T14:23:21.814Z,10.07
2018-05-10T14:25:49.404Z,1.57
2018-05-10T14:28:16.969Z,3.20
2018-05-10T14:30:44.591Z,4.40
2018-05-10T14:33:12.230Z,3.83
2018-05-10T14:35:39.942Z,4.00
2018-05-10T14:38:07.513Z,5.47
2018-05-10T14:40:35.078Z,9.00
2018-05-10T14:43:02.646Z,11.77
2018-05-10T14:45:30.205Z,7.10
2018-05-10T14:47:57.822Z,4.20
2018-05-10T14:50:25.376Z,9.40
2018-05-10T14:52:52.997Z,8.10
2018-05-10T14:55:20.694Z,9.20
2018-05-10T14:57:48.222Z,6.00
2018-05-10T15:00:15.845Z,5.07
2018-05-10T15:02:43.403Z,10.50
2018-05-10T15:05:10.985Z,9.97
2018-05-10T15:07:38.617Z,7.07
2018-05-10T15:10:06.237Z,3.30
2018-05-10T15:12:33.807Z,7.20
2018-05-10T15:15:01.433Z,5.83
2018-05-10T15:17:29.038Z,6.93
2018-05-10T15:19:56.600Z,8.00
2018-05-10T15:22:24.217Z,7.77
2018-05-10T15:24:51.791Z,7.10
2018-05-10T15:27:19.450Z,8.73
2018-05-10T15:29:46.998Z,3.93
2018-05-10T15:32:14.589Z,7.50
2018-05-10T15:34:42.211Z,13.23
2018-05-10T15:37:09.770Z,6.43
2018-05-10T15:39:37.409Z,5.63
2018-05-10T15:42:05.009Z,8.90
2018-05-10T15:44:32.581Z,6.30
2018-05-10T15:47:00.209Z,8.67
2018-05-10T15:49:27.778Z,8.13
2018-05-10T15:51:55.424Z,12.00
2018-05-10T15:54:23.000Z,6.10
2018-05-10T15:56:50.585Z,12.50
2018-05-10T15:59:18.165Z,21.23
2018-05-10T16:01:45.776Z,8.50
2018-05-10T16:04:13.400Z,8.13
2018-05-10T16:06:41.059Z,6.70
2018-05-10T16:09:08.628Z,8.93
2018-05-10T16:11:36.191Z,8.47
2018-05-10T16:14:03.744Z,7.37
2018-05-10T16:16:31.314Z,8.20
2018-05-10T16:18:58.897Z,7.40
2018-05-10T16:21:26.474Z,12.93
2018-05-10T16:23:54.026Z,7.70
2018-05-10T16:26:21.684Z,8.30
2018-05-10T16:28:49.302Z,8.73
2018-05-10T16:31:16.928Z,9.60
2018-05-10T16:33:44.492Z,15.73
2018-05-10T16:36:12.048Z,13.20
2018-05-10T16:38:39.616Z,14.63
2018-05-10T16:41:07.214Z,8.20
2018-05-10T16:43:34.880Z,14.43
2018-05-10T16:46:02.473Z,14.37
2018-05-10T16:48:30.090Z,7.97
2018-05-10T16:50:57.699Z,6.47
2018-05-10T16:53:25.322Z,9.03
2018-05-10T16:55:52.857Z,7.13
2018-05-10T16:58:20.417Z,12.90
2018-05-10T17:00:48.032Z,12.87
2018-05-10T17:03:15.596Z,14.90
2018-05-10T17:05:43.165Z,10.93
2018-05-10T17:08:10.736Z,6.20
2018-05-10T17:10:38.373Z,8.30
2018-05-10T17:13:06.009Z,8.63
2018-05-10T17:15:33.564Z,9.23
2018-05-10T17:18:01.248Z,12.33
2018-05-10T17:20:28.824Z,11.83
2018-05-10T17:22:56.384Z,9.57
2018-05-10T17:25:23.926Z,9.00
2018-05-10T17:27:51.479Z,12.23
2018-05-10T17:30:19.119Z,14.37
2018-05-10T17:32:46.745Z,14.13
2018-05-10T17:35:14.485Z,15.40
2018-05-10T17:37:42.046Z,12.67
2018-05-10T17:40:09.609Z,9.90
2018-05-10T17:42:37.161Z,10.53
2018-05-10T17:45:04.725Z,19.93
2018-05-10T17:47:32.352Z,10.50
2018-05-10T17:49:59.969Z,15.80
2018-05-10T17:52:27.581Z,16.27
2018-05-10T17:54:55.198Z,8.37
2018-05-10T17:57:22.765Z,10.00
2018-05-10T17:59:50.393Z,15.03
2018-05-10T18:02:17.993Z,10.67
2018-05-10T18:04:45.620Z,14.93
2018-05-10T18:07:13.218Z,13.03
2018-05-10T18:09:40.893Z,11.60
2018-05-10T18:12:08.505Z,12.77
2018-05-10T18:14:36.145Z,9.10
2018-05-10T18:17:03.696Z,11.40
2018-05-10T18:19:31.320Z,11.20
2018-05-10T18:21:58.954Z,14.30
2018-05-10T18:24:26.582Z,10.33
2018-05-10T18:26:54.192Z,8.83
2018-05-10T18:29:21.749Z,8.80
2018-05-10T18:31:49.322Z,27.10
2018-05-10T18:34:16.888Z,9.07
2018-05-10T18:36:44.509Z,11.47
2018-05-10T18:39:12.072Z,9.87
2018-05-10T18:41:39.693Z,16.27
2018-05-10T18:44:07.302Z,17.53
2018-05-10T18:46:34.861Z,20.33
2018-05-10T18:49:02.416Z,22.13
2018-05-10T18:51:29.998Z,10.73
2018-05-10T18:53:57.562Z,13.87
2018-05-10T18:56:25.152Z,12.00
2018-05-10T18:58:52.786Z,9.73
2018-05-10T19:01:20.469Z,17.03
2018-05-10T19:03:48.089Z,15.33
2018-05-10T19:06:15.656Z,14.37
2018-05-10T19:08:43.237Z,10.80
2018-05-10T19:11:10.833Z,11.90
2018-05-10T19:13:38.485Z,14.63
2018-05-10T19:16:06.053Z,12.60
2018-05-10T19:18:33.672Z,17.63
2018-05-10T19:21:01.257Z,16.10
2018-05-10T19:23:28.837Z,22.83
2018-05-10T19:25:56.422Z,16.77
2018-05-10T19:28:24.018Z,10.67
2018-05-10T19:30:52.007Z,16.00
2018-05-10T19:33:19.651Z,12.57
2018-05-10T19:35:47.268Z,12.07
2018-05-10T19:38:14.848Z,11.23
2018-05-10T19:40:42.417Z,22.33
2018-05-10T19:43:09.993Z,19.50
2018-05-10T19:45:37.564Z,10.13
2018-05-10T19:48:05.188Z,11.93
2018-05-10T19:50:32.757Z,11.40
2018-05-10T19:53:00.301Z,11.73
2018-05-10T19:55:27.883Z,11.67
2018-05-10T19:57:55.448Z,7.00
2018-05-10T20:00:23.018Z,11.40
2018-05-10T20:02:50.576Z,11.27
2018-05-10T20:05:18.201Z,10.73
2018-05-10T20:07:45.829Z,7.67
2018-05-10T20:10:13.388Z,7.23
2018-05-10T20:12:40.949Z,9.17
2018-05-10T20:15:08.516Z,15.03
2018-05-10T20:17:36.126Z,6.13
2018-05-10T20:20:03.705Z,14.03
2018-05-10T20:22:31.327Z,7.53
2018-05-10T20:24:58.959Z,5.57
2018-05-10T20:27:26.517Z,9.23
2018-05-10T20:29:54.145Z,16.53
2018-05-10T20:32:21.766Z,7.90
2018-05-10T20:34:49.653Z,9.23
2018-05-10T20:37:17.257Z,10.20
2018-05-10T20:39:44.925Z,9.70
2018-05-10T20:42:12.492Z,9.33
2018-05-10T20:44:40.144Z,7.30
2018-05-10T20:47:07.708Z,5.73
2018-05-10T20:49:35.329Z,8.67
2018-05-10T20:52:02.938Z,9.07
2018-05-10T20:54:30.557Z,5.80
2018-05-10T20:56:58.185Z,11.00
2018-05-10T20:59:25.756Z,9.47
2018-05-10T21:01:53.389Z,12.13
2018-05-10T21:04:21.041Z,6.90
2018-05-10T21:06:48.602Z,7.13
2018-05-10T21:09:16.176Z,12.27
2018-05-10T21:11:43.739Z,8.60
2018-05-10T21:14:11.274Z,6.83
2018-05-10T21:16:38.905Z,7.70
2018-05-10T21:19:06.472Z,13.00
2018-05-10T21:21:34.125Z,7.17
2018-05-10T21:24:01.685Z,12.60
2018-05-10T21:26:29.248Z,11.63
2018-05-10T21:28:56.811Z,9.30
2018-05-10T21:31:24.370Z,6.17
2018-05-10T21:33:52.009Z,6.63
2018-05-10T21:36:19.637Z,10.30
2018-05-10T21:38:47.315Z,12.10
2018-05-10T21:41:14.874Z,8.10
2018-05-10T21:43:42.492Z,6.80
2018-05-10T21:46:10.126Z,10.43
2018-05-10T21:48:37.782Z,7.83
2018-05-10T21:51:05.356Z,11.40
2018-05-10T21:53:32.968Z,9.17
2018-05-10T21:56:00.661Z,6.90
2018-05-10T21:58:28.223Z,12.40
2018-05-10T22:00:55.845Z,8.67
2018-05-10T22:03:23.650Z,7.23
2018-05-10T22:05:51.409Z,13.30
2018-05-10T22:08:19.198Z,15.03
2018-05-10T22:10:46.965Z,10.30
2018-05-10T22:13:14.826Z,13.10
2018-05-10T22:15:42.621Z,7.10
2018-05-10T22:18:10.424Z,11.77
2018-05-10T22:20:38.223Z,10.80
2018-05-10T22:23:05.783Z,7.80
2018-05-10T22:25:33.595Z,11.87
2018-05-10T22:28:01.401Z,12.73
2018-05-10T22:30:29.013Z,10.73
2018-05-10T22:32:56.659Z,10.13
2018-05-10T22:35:24.333Z,8.00
2018-05-10T22:37:51.889Z,11.20
2018-05-10T22:40:19.515Z,10.50
2018-05-10T22:42:47.249Z,8.50
2018-05-10T22:45:14.809Z,8.40
2018-05-10T22:47:42.419Z,12.40
2018-05-10T22:50:10.212Z,11.83
2018-05-10T22:52:37.846Z,8.40
2018-05-10T22:55:05.420Z,8.43
2018-05-10T22:57:33.067Z,6.33
2018-05-10T23:00:00.638Z,9.90
2018-05-10T23:02:28.197Z,8.60
2018-05-10T23:04:55.824Z,8.90
2018-05-10T23:07:23.441Z,8.63
2018-05-10T23:09:50.997Z,11.40
2018-05-10T23:12:18.583Z,10.40
2018-05-10T23:14:46.230Z,8.57
2018-05-10T23:17:13.912Z,7.17
2018-05-10T23:19:41.560Z,10.00
2018-05-10T23:22:09.257Z,16.03
2018-05-10T23:24:36.886Z,11.77
2018-05-10T23:27:04.532Z,14.70
2018-05-10T23:29:32.183Z,19.30
2018-05-10T23:31:59.796Z,12.30
2018-05-10T23:34:27.435Z,12.73
2018-05-10T23:36:55.065Z,14.27
2018-05-10T23:39:22.754Z,12.43
2018-05-10T23:41:50.322Z,13.00
2018-05-10T23:44:17.945Z,16.23
2018-05-10T23:46:45.573Z,11.73
2018-05-10T23:49:13.210Z,14.17
2018-05-10T23:51:40.833Z,23.93
2018-05-10T23:54:08.449Z,9.90
2018-05-10T23:56:36.134Z,11.83
2018-05-10T23:59:03.808Z,13.00
